Wood Lake, North Dakota
Current Conditions -  °F | °C
As of 4:55 PM on Monday 22 Dec 2014 (Local Time) from KDVL Reporting Station
Overcast Overcast  
Wind Chill: -4°   Ceiling: 400
Heat Index:   Visibility: 2mi
Dew Point:   Wind: 14mph
Humidity: 93%   Direction: 40°NE
Pressure: 29.6"   Gusts: NA
Location:  47.9248°N, 98.8159°W
Report Text: KDVL 222255Z AUTO 04012KT 2SM OVC004 01/00 A2960 RMK AO1
Loading
Personal Weather Stations






























Interactive Weather Map New forecast layout! Learn more

10-Day Weather Forecast

Advertisements
Track Severe Weather on mobile